If you wish to contribute or participate in the discussions about articles you are invited to join SKYbrary as a registered user

 Actions

Biju Patnaik International Airport

From SKYbrary Wiki

VEBS
Airport
ICAO: VEBS
Summary
Name Biju Patnaik International Airport
Region Asia and Pacific
Territory India IN.gif
Location Bhubaneswar, Odisha
Serving
Coordinates 20° 14' 45.75" N, 85° 49' 1.93" E
Runways
Designator Length Width Surface ROPS
5/23 1379 m4,524.278 ft
46 m150.919 ft
BIT yes/yes
14/32 2243 m7,358.924 ft
46 m150.919 ft
BIT yes/yes


METAR
Observation VEBS 242300Z 18003KT 4000 HZ FEW020 29/27 Q1005 NOSIG
Station Bhubaneswar
Date/Time 24 June 2019 23:00:00
Wind direction 180°
Wind speed 03 kts
Lowest cloud amount few clouds
Temperature 29°C
Dew point 27°C
Humidity 89%
QNH 1005 hPa
Weather condition n/a

WX
Tag(s) Cumulonimbus

Biju Patnaik International Airport

ICAO: VEBS IATA: BBI

Bhubaneswar Airport

Description

Biju Patnaik International Airport, also known as Bhubaneswar Airport, is situated in the city of Bhubaneswar, Odisha.

Climatology

Tropical Savanna climate (Köppen climate classification Aw) - monthly mean temperatures above 18°C64.4 °F
291.15 K
524.07 °R
, and a pronounced dry season. A Tropical Savanna climate has more pronounced dry seasons than a Tropical Monsoon climate.

Maps

Terrain

Loading map...

Airport Layout

Loading map...



Accidents & Serious Incidents at or in vicinity of VEBS

None on SKYbrary